Time;durP1;ratioP1;P1;durP2;ratioP2;P2;SDS_P1;SDS_P2;PMS_P1;PMS_P2;Temp;Humidity;BMP_temperature;BMP_pressure;BME280_temperature;BME280_humidity;BME280_pressure;Samples;Min_cycle;Max_cycle;Signal;HPM_P1;HPM_P2
2022/01/29 00:00:57;;;;;;;53.03;27.83;;;6.20;99.90;;;;;;4988387;28;20289;-71
2022/01/29 00:03:23;;;;;;;52.77;27.57;;;6.20;99.90;;;;;;4989607;28;20236;-71
2022/01/29 00:05:49;;;;;;;53.47;28.77;;;6.20;99.90;;;;;;4989775;28;20193;-72
2022/01/29 00:08:16;;;;;;;55.03;28.53;;;6.20;99.90;;;;;;4989224;28;20193;-73
2022/01/29 00:10:43;;;;;;;59.70;27.97;;;6.20;99.90;;;;;;5007024;28;20233;-74
2022/01/29 00:13:09;;;;;;;53.27;29.27;;;6.20;99.90;;;;;;4988362;28;20189;-73
2022/01/29 00:15:35;;;;;;;58.47;26.93;;;6.20;99.90;;;;;;4989826;28;20252;-73
2022/01/29 00:18:02;;;;;;;51.83;27.40;;;6.20;99.90;;;;;;4989452;28;20189;-72
2022/01/29 00:20:27;;;;;;;55.20;27.90;;;6.30;99.90;;;;;;4988901;28;20305;-73
2022/01/29 00:22:53;;;;;;;50.13;27.90;;;6.30;99.90;;;;;;4989408;28;20197;-73
2022/01/29 00:25:19;;;;;;;50.77;28.33;;;6.30;99.90;;;;;;4989280;28;20193;-73
2022/01/29 00:27:44;;;;;;;53.80;28.77;;;6.30;99.90;;;;;;4989542;28;20220;-73
2022/01/29 00:30:17;;;;;;;52.43;26.87;;;6.30;99.90;;;;;;4989017;28;20205;-73
2022/01/29 00:32:43;;;;;;;56.67;27.77;;;6.30;99.90;;;;;;4989115;28;20228;-72
2022/01/29 00:35:09;;;;;;;51.87;26.67;;;6.30;99.90;;;;;;4988036;28;20201;-72
2022/01/29 00:37:35;;;;;;;54.53;28.40;;;6.30;99.90;;;;;;4989957;28;20232;-74
2022/01/29 00:40:02;;;;;;;56.13;28.77;;;6.30;99.90;;;;;;4988644;28;20221;-72
2022/01/29 00:42:28;;;;;;;53.10;28.00;;;6.30;99.90;;;;;;4988769;28;20260;-72
2022/01/29 00:44:53;;;;;;;50.13;27.57;;;6.30;99.90;;;;;;4989508;28;20277;-72
2022/01/29 00:47:19;;;;;;;55.60;27.83;;;6.30;99.90;;;;;;4991823;28;20301;-73
2022/01/29 00:49:45;;;;;;;51.67;27.30;;;6.40;99.90;;;;;;4988117;28;20251;-72
2022/01/29 00:52:11;;;;;;;51.87;27.20;;;6.40;99.90;;;;;;4988729;28;20232;-73
2022/01/29 00:54:37;;;;;;;50.50;27.87;;;6.40;99.90;;;;;;4991881;28;20572;-72
2022/01/29 00:57:04;;;;;;;51.00;26.97;;;6.40;99.90;;;;;;4996707;28;20197;-72
2022/01/29 00:59:31;;;;;;;52.37;27.67;;;6.40;99.90;;;;;;4991470;28;20185;-72
2022/01/29 01:01:57;;;;;;;52.63;27.83;;;6.40;99.90;;;;;;4990369;28;20181;-73
2022/01/29 01:04:22;;;;;;;52.93;28.47;;;6.40;99.90;;;;;;4988952;28;20200;-73
2022/01/29 01:06:48;;;;;;;51.07;27.83;;;6.40;99.90;;;;;;4986056;28;20193;-73
2022/01/29 01:09:14;;;;;;;53.07;27.27;;;6.40;99.90;;;;;;4986209;28;20877;-73
2022/01/29 01:11:39;;;;;;;50.43;28.53;;;6.40;99.90;;;;;;4988328;28;20225;-73
2022/01/29 01:14:05;;;;;;;54.27;27.97;;;6.40;99.90;;;;;;4986666;28;20239;-73
2022/01/29 01:16:31;;;;;;;53.37;28.90;;;6.40;99.90;;;;;;4986238;28;20181;-73
2022/01/29 01:18:56;;;;;;;48.93;27.67;;;6.40;99.90;;;;;;4986927;28;20193;-73
2022/01/29 01:21:22;;;;;;;55.80;29.30;;;6.40;99.90;;;;;;4987169;28;20225;-73
2022/01/29 01:23:48;;;;;;;49.73;27.70;;;6.40;99.90;;;;;;4987179;28;20284;-73
2022/01/29 01:26:13;;;;;;;54.20;27.87;;;6.40;99.90;;;;;;4988316;28;20200;-73
2022/01/29 01:28:39;;;;;;;49.67;28.17;;;6.40;99.90;;;;;;4987774;28;20193;-73
2022/01/29 01:31:05;;;;;;;58.50;28.37;;;6.40;99.90;;;;;;4988204;28;20545;-73
2022/01/29 01:33:30;;;;;;;53.07;28.80;;;6.40;99.90;;;;;;4988504;28;20244;-74
2022/01/29 01:36:00;;;;;;;50.83;27.50;;;6.40;99.90;;;;;;4988133;28;20190;-71
2022/01/29 01:41:02;;;;;;;49.97;28.83;;;6.40;99.90;;;;;;4989357;28;20213;-71
2022/01/29 01:43:28;;;;;;;49.63;28.07;;;6.40;99.90;;;;;;4987354;28;20193;-71
2022/01/29 01:45:54;;;;;;;52.40;28.70;;;6.40;99.90;;;;;;4987656;28;20224;-73
2022/01/29 01:48:20;;;;;;;49.00;27.10;;;6.40;99.90;;;;;;5003422;28;20235;-72
2022/01/29 01:50:46;;;;;;;48.33;28.13;;;6.30;99.90;;;;;;4986361;28;20307;-73
2022/01/29 01:53:12;;;;;;;47.80;27.83;;;6.30;99.90;;;;;;4986302;28;20277;-73
2022/01/29 01:55:38;;;;;;;48.60;27.43;;;6.40;99.90;;;;;;4985606;28;20265;-72
2022/01/29 01:58:04;;;;;;;50.67;26.97;;;6.40;99.90;;;;;;4987659;28;20320;-73
2022/01/29 02:00:30;;;;;;;54.00;27.97;;;6.30;99.90;;;;;;4985844;28;20613;-72
2022/01/29 02:02:56;;;;;;;51.83;27.83;;;6.40;99.90;;;;;;4988080;28;20185;-72
2022/01/29 02:05:22;;;;;;;50.83;28.07;;;6.30;99.90;;;;;;4988009;28;20233;-74
2022/01/29 02:07:49;;;;;;;51.87;27.43;;;6.30;99.90;;;;;;4988923;28;20193;-72
2022/01/29 02:10:17;;;;;;;46.53;27.33;;;6.30;99.90;;;;;;4990449;28;20206;-73
2022/01/29 02:12:59;;;;;;;48.37;26.60;;;6.30;99.90;;;;;;4989059;28;20177;-73
2022/01/29 02:15:26;;;;;;;47.73;27.07;;;6.30;99.90;;;;;;4998830;28;20192;-73
2022/01/29 02:17:52;;;;;;;45.10;27.53;;;6.30;99.90;;;;;;5025921;28;20864;-73
2022/01/29 02:20:23;;;;;;;46.17;26.30;;;6.30;99.90;;;;;;4988929;28;20275;-73
2022/01/29 02:22:50;;;;;;;45.33;26.27;;;6.30;99.90;;;;;;4987445;28;20190;-72
2022/01/29 02:25:38;;;;;;;49.03;27.33;;;6.30;99.90;;;;;;4990828;28;20192;-72
2022/01/29 02:28:10;;;;;;;46.73;24.57;;;6.30;99.90;;;;;;5010498;28;20185;-72
2022/01/29 02:30:38;;;;;;;47.70;26.70;;;6.30;99.90;;;;;;4971421;28;20261;-72
2022/01/29 02:33:09;;;;;;;49.60;26.40;;;6.30;99.90;;;;;;4980917;28;20197;-72
2022/01/29 02:35:39;;;;;;;47.40;26.30;;;6.30;99.90;;;;;;4991279;28;20197;-72
2022/01/29 02:38:05;;;;;;;44.23;25.73;;;6.30;99.90;;;;;;4990778;28;20192;-72
2022/01/29 02:40:35;;;;;;;46.03;24.63;;;6.30;99.90;;;;;;4989169;28;20217;-72
2022/01/29 02:43:19;;;;;;;48.73;26.93;;;6.30;99.90;;;;;;4990925;28;20184;-70
2022/01/29 02:45:46;;;;;;;40.03;24.20;;;6.30;99.90;;;;;;4990754;28;20609;-70
2022/01/29 02:48:12;;;;;;;42.67;23.97;;;6.30;99.90;;;;;;4991381;28;20189;-70
2022/01/29 02:50:39;;;;;;;41.77;23.93;;;6.30;99.90;;;;;;4994668;28;20209;-72
2022/01/29 02:53:05;;;;;;;39.17;23.03;;;6.30;99.90;;;;;;5001240;28;20190;-72
2022/01/29 02:55:31;;;;;;;39.87;23.20;;;6.30;99.90;;;;;;4989552;28;20217;-72
2022/01/29 02:57:57;;;;;;;41.77;23.60;;;6.30;99.90;;;;;;4991311;28;20263;-72
2022/01/29 03:00:23;;;;;;;38.53;23.57;;;6.30;99.90;;;;;;4990480;28;20223;-72
2022/01/29 03:02:49;;;;;;;36.93;22.67;;;6.30;99.90;;;;;;4994998;28;20186;-72
2022/01/29 03:05:15;;;;;;;40.67;23.07;;;6.30;99.90;;;;;;4997346;28;20292;-71
2022/01/29 03:07:40;;;;;;;39.87;23.33;;;6.30;99.90;;;;;;4989992;28;20190;-71
2022/01/29 03:10:07;;;;;;;40.03;21.37;;;6.40;99.90;;;;;;4990476;28;20205;-72
2022/01/29 03:12:33;;;;;;;35.50;22.67;;;6.40;99.90;;;;;;4991368;28;20660;-72
2022/01/29 03:14:59;;;;;;;35.80;21.40;;;6.30;99.90;;;;;;4991112;28;20204;-72
2022/01/29 03:17:25;;;;;;;37.63;21.50;;;6.30;99.90;;;;;;4991023;28;20205;-72
2022/01/29 03:19:52;;;;;;;36.03;21.37;;;6.30;99.90;;;;;;4989684;28;20220;-72
2022/01/29 03:22:18;;;;;;;38.90;22.47;;;6.30;99.90;;;;;;4999412;28;20239;-72
2022/01/29 03:24:44;;;;;;;39.40;21.03;;;6.30;99.90;;;;;;4987473;28;20190;-72
2022/01/29 03:27:10;;;;;;;33.90;20.57;;;6.30;99.90;;;;;;4990806;28;20233;-72
2022/01/29 03:29:36;;;;;;;38.40;21.03;;;6.40;99.90;;;;;;4990082;28;20213;-72
2022/01/29 03:32:02;;;;;;;36.63;22.17;;;6.30;99.90;;;;;;4991087;28;20612;-72
2022/01/29 03:34:28;;;;;;;36.83;20.50;;;6.30;99.90;;;;;;4991187;28;20239;-72
2022/01/29 03:36:56;;;;;;;37.77;21.73;;;6.30;99.90;;;;;;4990631;28;20206;-72
2022/01/29 03:39:23;;;;;;;33.47;21.47;;;6.40;99.90;;;;;;4990175;28;20269;-72
2022/01/29 03:41:49;;;;;;;36.73;21.57;;;6.30;99.90;;;;;;4990968;28;20271;-72
2022/01/29 03:44:15;;;;;;;37.27;20.63;;;6.30;99.90;;;;;;4991064;28;20190;-72
2022/01/29 03:46:41;;;;;;;34.70;20.70;;;6.30;99.90;;;;;;4990854;28;20185;-72
2022/01/29 03:49:06;;;;;;;38.87;20.93;;;6.30;99.90;;;;;;4990129;28;20220;-72
2022/01/29 03:51:32;;;;;;;39.53;20.20;;;6.30;99.90;;;;;;4987269;28;20304;-72
2022/01/29 03:53:58;;;;;;;34.13;20.00;;;6.30;99.90;;;;;;4987576;28;20572;-72
2022/01/29 03:56:23;;;;;;;33.73;19.23;;;6.30;99.90;;;;;;4986910;28;20182;-72
2022/01/29 03:58:49;;;;;;;34.10;20.43;;;6.30;99.90;;;;;;4990387;28;20178;-72
2022/01/29 04:01:15;;;;;;;33.00;20.27;;;6.30;99.90;;;;;;4988663;28;20236;-72
2022/01/29 04:03:40;;;;;;;33.83;18.97;;;6.30;99.90;;;;;;4990353;28;20217;-72
2022/01/29 04:06:06;;;;;;;33.23;19.30;;;6.30;99.90;;;;;;4990329;28;20209;-72
2022/01/29 04:08:39;;;;;;;31.93;19.90;;;6.40;99.90;;;;;;4990274;28;20321;-72
2022/01/29 04:11:04;;;;;;;30.33;18.87;;;6.40;99.90;;;;;;4990376;28;20268;-72
2022/01/29 04:13:30;;;;;;;32.23;20.33;;;6.40;99.90;;;;;;5008524;28;20205;-72
2022/01/29 04:15:56;;;;;;;31.20;19.20;;;6.40;99.90;;;;;;4994459;28;20177;-72
2022/01/29 04:18:21;;;;;;;32.30;19.13;;;6.50;99.90;;;;;;4990939;28;20218;-72
2022/01/29 04:20:47;;;;;;;28.57;19.37;;;6.50;99.90;;;;;;4981469;28;20303;-72
2022/01/29 04:23:13;;;;;;;33.50;20.17;;;6.50;99.90;;;;;;4993888;28;20185;-72
2022/01/29 04:25:38;;;;;;;32.13;18.73;;;6.50;99.90;;;;;;4990787;28;20225;-72
2022/01/29 04:28:05;;;;;;;34.00;19.90;;;6.50;99.90;;;;;;4997946;28;20196;-72
2022/01/29 04:30:39;;;;;;;31.50;19.53;;;6.60;99.90;;;;;;5006174;28;20201;-72
2022/01/29 04:33:24;;;;;;;32.93;19.13;;;6.60;99.90;;;;;;4993798;28;20189;-72
2022/01/29 04:35:50;;;;;;;30.53;17.87;;;6.60;99.90;;;;;;4993917;28;20300;-72
2022/01/29 04:38:16;;;;;;;33.47;19.63;;;6.60;99.90;;;;;;4993811;28;20193;-72
2022/01/29 04:40:42;;;;;;;31.30;17.77;;;6.60;99.90;;;;;;4993427;28;20224;-72
2022/01/29 04:43:08;;;;;;;30.00;18.43;;;6.60;99.90;;;;;;4994000;28;20544;-72
2022/01/29 04:45:34;;;;;;;32.90;18.83;;;6.60;99.90;;;;;;4992951;28;20181;-72
2022/01/29 04:48:00;;;;;;;31.93;19.83;;;6.60;99.90;;;;;;4994745;28;20625;-72
2022/01/29 04:50:26;;;;;;;33.07;19.37;;;6.60;99.90;;;;;;4995701;28;20216;-72
2022/01/29 04:52:52;;;;;;;32.73;18.53;;;6.70;99.90;;;;;;5023430;28;20189;-72
2022/01/29 04:55:18;;;;;;;33.87;19.40;;;6.70;99.90;;;;;;4993213;28;20178;-72
2022/01/29 04:57:43;;;;;;;31.00;19.10;;;6.70;99.90;;;;;;4993663;28;20184;-72
2022/01/29 05:00:12;;;;;;;30.87;19.40;;;6.70;99.90;;;;;;4992594;28;20985;-72
2022/01/29 05:02:38;;;;;;;28.93;18.87;;;6.70;99.90;;;;;;4993834;28;20208;-71
2022/01/29 05:05:05;;;;;;;28.47;18.00;;;6.70;99.90;;;;;;4993720;28;20209;-71
2022/01/29 05:07:31;;;;;;;33.00;18.70;;;6.80;99.90;;;;;;4996566;28;20265;-71
2022/01/29 05:09:57;;;;;;;31.80;19.07;;;6.80;99.90;;;;;;4999976;28;20269;-71
2022/01/29 05:12:29;;;;;;;33.87;19.87;;;6.80;99.90;;;;;;4998774;28;20284;-72
2022/01/29 05:28:04;;;;;;;26.83;16.90;;;7.00;99.90;;;;;;4993910;28;20724;-72
2022/01/29 05:30:30;;;;;;;25.90;16.90;;;7.00;99.90;;;;;;5003566;28;20205;-72
2022/01/29 05:32:55;;;;;;;32.70;18.23;;;6.90;99.90;;;;;;5010177;28;20173;-72
2022/01/29 05:35:21;;;;;;;27.70;18.67;;;7.00;99.90;;;;;;4992024;28;20227;-72
2022/01/29 05:37:50;;;;;;;27.37;17.93;;;7.00;99.90;;;;;;4992227;28;20611;-72
2022/01/29 05:40:16;;;;;;;28.47;17.87;;;7.00;99.90;;;;;;4992159;28;20194;-72
2022/01/29 05:42:41;;;;;;;29.63;18.10;;;7.00;99.90;;;;;;4992860;28;20181;-72
2022/01/29 05:45:07;;;;;;;29.80;18.03;;;7.10;99.90;;;;;;4992253;28;20196;-71
2022/01/29 05:47:35;;;;;;;30.77;18.17;;;7.10;99.90;;;;;;4992943;28;20594;-71
2022/01/29 05:50:01;;;;;;;27.37;17.57;;;7.10;99.90;;;;;;4991299;28;20202;-72
2022/01/29 05:52:27;;;;;;;28.00;17.40;;;7.10;99.90;;;;;;4989042;28;20210;-72
2022/01/29 05:54:53;;;;;;;30.13;17.63;;;7.10;99.90;;;;;;4992464;28;20227;-72
2022/01/29 05:57:19;;;;;;;30.37;17.40;;;7.10;99.90;;;;;;4987672;28;20175;-72
2022/01/29 05:59:44;;;;;;;28.63;17.97;;;7.10;99.90;;;;;;4991426;28;20170;-72
2022/01/29 06:02:11;;;;;;;27.30;17.10;;;7.10;99.90;;;;;;4992677;28;20184;-72
2022/01/29 06:04:37;;;;;;;26.07;16.97;;;7.10;99.90;;;;;;5022189;28;20186;-72
2022/01/29 06:07:03;;;;;;;26.70;17.13;;;7.10;99.90;;;;;;4991996;28;20189;-72
2022/01/29 06:09:28;;;;;;;28.67;17.73;;;7.10;99.90;;;;;;4991806;28;20252;-72
2022/01/29 06:11:54;;;;;;;28.50;17.00;;;7.20;99.90;;;;;;4992012;28;20232;-72
2022/01/29 06:14:19;;;;;;;26.10;17.43;;;7.20;99.90;;;;;;4992219;28;20200;-73
2022/01/29 06:16:45;;;;;;;26.33;16.67;;;7.20;99.90;;;;;;4992155;28;20170;-72
2022/01/29 06:19:11;;;;;;;26.90;17.10;;;7.20;99.90;;;;;;4991203;28;20178;-72
2022/01/29 06:21:36;;;;;;;28.07;17.03;;;7.20;99.90;;;;;;4991319;28;20223;-72
2022/01/29 06:24:02;;;;;;;28.27;16.77;;;7.20;99.90;;;;;;4991347;28;20213;-72
2022/01/29 06:26:28;;;;;;;32.33;17.67;;;7.20;99.90;;;;;;4992030;28;20186;-72
2022/01/29 06:28:54;;;;;;;26.93;16.77;;;7.20;99.90;;;;;;4990991;28;20200;-72
2022/01/29 06:31:19;;;;;;;29.83;17.23;;;7.20;99.90;;;;;;4987859;28;20216;-73
2022/01/29 06:33:45;;;;;;;28.97;16.80;;;7.20;99.90;;;;;;4991758;28;20182;-71
2022/01/29 06:36:11;;;;;;;27.60;16.93;;;7.20;99.90;;;;;;4991382;28;20209;-71
2022/01/29 06:38:37;;;;;;;28.27;17.27;;;7.20;99.90;;;;;;4991071;28;20228;-71
2022/01/29 06:41:03;;;;;;;30.67;18.43;;;7.20;99.90;;;;;;4991700;28;20263;-71
2022/01/29 06:43:28;;;;;;;26.87;16.67;;;7.20;99.90;;;;;;4991814;28;20209;-71
2022/01/29 06:45:54;;;;;;;29.00;18.33;;;7.20;99.90;;;;;;4991558;28;20332;-71
2022/01/29 06:48:20;;;;;;;26.63;17.43;;;7.30;99.90;;;;;;4991460;28;20178;-72
2022/01/29 06:50:46;;;;;;;26.93;16.77;;;7.20;99.90;;;;;;4995146;28;20238;-71
2022/01/29 06:53:11;;;;;;;28.30;16.17;;;7.20;99.90;;;;;;4995072;28;20601;-71
2022/01/29 06:55:37;;;;;;;27.97;17.23;;;7.20;99.90;;;;;;4997196;28;20178;-72
2022/01/29 06:58:03;;;;;;;27.33;17.27;;;7.30;99.90;;;;;;4995176;28;20185;-72
2022/01/29 07:00:29;;;;;;;27.83;17.07;;;7.30;99.90;;;;;;4972872;28;20202;-72
2022/01/29 07:02:55;;;;;;;28.40;17.23;;;7.30;99.90;;;;;;4992372;28;20181;-73
2022/01/29 07:05:21;;;;;;;27.57;17.10;;;7.30;99.90;;;;;;4993163;28;20185;-73
2022/01/29 07:07:46;;;;;;;26.53;17.03;;;7.30;99.90;;;;;;4991279;28;20178;-73
2022/01/29 07:10:13;;;;;;;28.00;18.43;;;7.30;99.90;;;;;;4989010;28;20210;-72
2022/01/29 07:12:41;;;;;;;28.60;18.10;;;7.30;99.90;;;;;;4990005;28;20190;-72
2022/01/29 07:15:08;;;;;;;28.63;17.23;;;7.40;99.90;;;;;;4991398;28;20181;-72
2022/01/29 07:17:34;;;;;;;27.47;17.80;;;7.30;99.90;;;;;;4991083;28;20177;-72
2022/01/29 07:20:00;;;;;;;30.43;18.10;;;7.30;99.90;;;;;;4990332;28;20213;-73
2022/01/29 07:22:25;;;;;;;26.63;16.57;;;7.30;99.90;;;;;;4992079;28;20281;-73
2022/01/29 07:24:51;;;;;;;27.87;16.93;;;7.30;99.90;;;;;;4989722;28;20308;-72
2022/01/29 07:27:17;;;;;;;25.00;16.97;;;7.30;99.90;;;;;;4993738;28;20192;-73
2022/01/29 07:29:43;;;;;;;30.87;17.80;;;7.30;99.90;;;;;;5026187;28;20195;-73
2022/01/29 07:32:10;;;;;;;26.37;16.90;;;7.30;99.90;;;;;;5027280;28;20209;-72
2022/01/29 07:34:36;;;;;;;25.20;16.77;;;7.30;99.90;;;;;;5027433;28;20211;-72
2022/01/29 07:37:03;;;;;;;25.13;16.20;;;7.30;99.90;;;;;;5016649;28;20178;-72
2022/01/29 07:39:28;;;;;;;24.53;15.70;;;7.30;99.90;;;;;;4989908;28;20192;-72
2022/01/29 07:41:55;;;;;;;24.50;15.93;;;7.30;99.90;;;;;;4989951;28;20292;-72
2022/01/29 07:44:21;;;;;;;23.50;15.30;;;7.40;99.90;;;;;;4990721;28;20266;-72
2022/01/29 07:46:47;;;;;;;25.70;16.47;;;7.30;99.90;;;;;;4990626;28;20189;-72
2022/01/29 07:49:13;;;;;;;25.40;16.77;;;7.30;99.90;;;;;;4993514;28;20239;-72
2022/01/29 07:51:39;;;;;;;24.20;15.30;;;7.30;99.90;;;;;;4991119;28;20214;-72
2022/01/29 07:54:06;;;;;;;22.50;14.63;;;7.30;99.90;;;;;;4990259;28;20190;-73
2022/01/29 07:56:32;;;;;;;22.83;14.20;;;7.30;99.90;;;;;;4991026;28;20185;-72
2022/01/29 07:58:57;;;;;;;23.20;15.07;;;7.30;99.90;;;;;;4993316;28;20178;-72
2022/01/29 08:01:23;;;;;;;25.37;14.63;;;7.40;99.90;;;;;;4994274;28;20213;-72
2022/01/29 08:03:50;;;;;;;21.13;13.90;;;7.40;99.90;;;;;;4991434;28;20186;-72
2022/01/29 08:06:17;;;;;;;20.50;14.33;;;7.40;99.90;;;;;;4994463;28;20232;-70
2022/01/29 08:08:43;;;;;;;22.37;14.13;;;7.40;99.90;;;;;;4993434;28;20189;-70
2022/01/29 08:11:11;;;;;;;22.37;14.53;;;7.40;99.90;;;;;;4993714;28;20792;-70
2022/01/29 08:13:37;;;;;;;22.70;14.63;;;7.40;99.90;;;;;;4993773;28;20178;-70
2022/01/29 08:16:03;;;;;;;23.13;14.50;;;7.40;99.90;;;;;;4995092;28;20196;-70
2022/01/29 08:18:29;;;;;;;24.27;15.93;;;7.40;99.90;;;;;;4993122;28;20176;-70
2022/01/29 08:20:55;;;;;;;22.40;15.23;;;7.40;99.90;;;;;;4993692;28;20213;-70
2022/01/29 08:23:21;;;;;;;22.20;14.63;;;7.40;99.90;;;;;;4993832;28;20804;-71
2022/01/29 08:25:46;;;;;;;23.27;14.17;;;7.40;99.90;;;;;;4993366;28;20235;-70
2022/01/29 08:28:12;;;;;;;24.87;14.33;;;7.40;99.90;;;;;;5004262;28;20182;-70
2022/01/29 08:30:38;;;;;;;23.47;13.57;;;7.40;99.90;;;;;;4999092;28;20216;-70
2022/01/29 08:33:06;;;;;;;19.33;12.67;;;7.40;99.90;;;;;;4993712;28;20189;-70
2022/01/29 08:35:32;;;;;;;18.63;13.03;;;7.40;99.90;;;;;;4992705;28;20186;-70
2022/01/29 08:37:58;;;;;;;20.13;13.27;;;7.40;99.90;;;;;;4993581;28;20208;-71
2022/01/29 08:40:24;;;;;;;17.43;11.63;;;7.50;99.90;;;;;;4993206;28;20305;-70
2022/01/29 08:42:50;;;;;;;18.83;12.10;;;7.50;99.90;;;;;;4993376;28;20798;-70
2022/01/29 08:45:15;;;;;;;16.30;11.43;;;7.50;99.90;;;;;;4991403;28;20194;-71
2022/01/29 08:47:41;;;;;;;17.40;11.67;;;7.50;99.90;;;;;;4993973;28;20193;-71
2022/01/29 08:50:09;;;;;;;16.50;11.60;;;7.60;99.90;;;;;;4992546;28;20213;-70
2022/01/29 08:52:36;;;;;;;14.53;10.60;;;7.50;99.90;;;;;;4999535;28;20209;-70
2022/01/29 08:55:02;;;;;;;15.47;11.07;;;7.50;99.90;;;;;;4993580;28;20577;-71
2022/01/29 08:57:28;;;;;;;14.43;10.40;;;7.50;99.90;;;;;;4993698;28;20177;-70
2022/01/29 08:59:53;;;;;;;16.60;11.13;;;7.60;99.90;;;;;;4986720;28;20189;-70
2022/01/29 09:02:19;;;;;;;14.40;9.97;;;7.50;99.90;;;;;;4992928;28;20196;-70
2022/01/29 09:04:45;;;;;;;17.43;10.80;;;7.50;99.90;;;;;;4993367;28;20190;-71
2022/01/29 09:07:10;;;;;;;15.33;10.23;;;7.60;99.90;;;;;;4992719;28;20220;-71
2022/01/29 09:09:36;;;;;;;15.43;9.93;;;7.60;99.90;;;;;;4992236;28;20192;-70
2022/01/29 09:12:02;;;;;;;13.73;9.43;;;7.60;99.90;;;;;;4992970;28;20205;-70
2022/01/29 09:14:28;;;;;;;13.30;9.97;;;7.60;99.90;;;;;;4992819;28;20181;-70
2022/01/29 09:16:54;;;;;;;14.87;10.03;;;7.60;99.90;;;;;;4991086;28;20191;-70
2022/01/29 09:19:19;;;;;;;12.90;9.70;;;7.70;99.90;;;;;;4992063;28;20174;-71
2022/01/29 09:21:45;;;;;;;12.80;9.47;;;7.70;99.90;;;;;;5009168;28;20224;-71
2022/01/29 09:24:11;;;;;;;12.90;9.17;;;7.70;99.90;;;;;;4992353;28;20182;-70
2022/01/29 09:26:36;;;;;;;12.90;9.43;;;7.70;99.90;;;;;;4991828;28;20193;-70
2022/01/29 09:29:03;;;;;;;13.10;9.20;;;7.70;99.90;;;;;;5008372;28;20181;-71
2022/01/29 09:31:29;;;;;;;12.47;8.60;;;7.70;99.90;;;;;;4991930;28;20240;-71
2022/01/29 09:33:55;;;;;;;13.67;8.97;;;7.80;99.90;;;;;;4992261;28;20279;-70
2022/01/29 09:36:21;;;;;;;14.40;9.20;;;7.80;99.90;;;;;;4991255;28;20240;-70
2022/01/29 09:38:47;;;;;;;12.80;9.27;;;7.80;99.90;;;;;;4991271;28;20178;-70
2022/01/29 09:41:14;;;;;;;11.87;8.77;;;7.80;99.90;;;;;;4991948;28;20570;-71
2022/01/29 09:43:43;;;;;;;11.90;9.10;;;7.90;99.90;;;;;;4992326;28;20212;-70
2022/01/29 09:46:09;;;;;;;12.90;9.60;;;7.90;99.90;;;;;;4992438;28;20189;-70
2022/01/29 09:48:35;;;;;;;13.87;8.83;;;7.90;99.90;;;;;;4990922;28;20204;-71
2022/01/29 09:51:01;;;;;;;14.40;9.70;;;7.90;99.90;;;;;;4991935;28;20275;-71
2022/01/29 09:53:26;;;;;;;14.00;8.77;;;7.90;99.90;;;;;;4991778;28;20181;-70
2022/01/29 09:55:52;;;;;;;11.77;9.17;;;8.00;99.90;;;;;;4992092;28;20586;-71
2022/01/29 09:58:18;;;;;;;12.47;8.23;;;7.90;99.90;;;;;;4989334;28;20213;-70
2022/01/29 10:00:44;;;;;;;13.00;8.97;;;8.00;99.90;;;;;;4991605;28;20201;-71
2022/01/29 10:03:10;;;;;;;13.10;9.47;;;8.00;99.90;;;;;;4992071;28;20182;-70
2022/01/29 10:05:48;;;;;;;12.13;8.63;;;8.00;99.90;;;;;;4992239;28;20182;-70
2022/01/29 10:08:14;;;;;;;13.67;9.30;;;8.00;99.90;;;;;;4999833;28;20179;-71
2022/01/29 10:10:45;;;;;;;12.77;9.27;;;8.00;99.90;;;;;;5010387;28;20209;-70
2022/01/29 10:13:36;;;;;;;12.00;8.97;;;8.00;99.90;;;;;;4998290;28;20182;-71
2022/01/29 10:16:20;;;;;;;11.53;9.00;;;8.10;99.90;;;;;;4989748;28;20196;-71
2022/01/29 10:19:01;;;;;;;13.93;9.57;;;8.10;99.90;;;;;;4971879;28;20274;-70
2022/01/29 10:21:35;;;;;;;11.97;9.27;;;8.10;99.90;;;;;;4984283;28;20308;-71
2022/01/29 10:24:04;;;;;;;13.73;9.93;;;8.10;99.90;;;;;;4989652;28;20197;-70
2022/01/29 10:26:34;;;;;;;14.03;10.17;;;8.10;99.90;;;;;;4989472;28;20189;-70
2022/01/29 10:29:02;;;;;;;11.77;9.67;;;8.10;99.90;;;;;;4989693;28;20193;-71
2022/01/29 10:31:48;;;;;;;16.57;10.13;;;8.20;99.90;;;;;;5007343;28;20288;-71
2022/01/29 10:34:22;;;;;;;14.50;10.17;;;8.20;99.90;;;;;;4989834;28;20190;-72
2022/01/29 10:37:13;;;;;;;14.10;10.20;;;8.20;99.90;;;;;;5008006;28;20173;-72
2022/01/29 10:39:44;;;;;;;15.43;10.37;;;8.30;99.90;;;;;;4982499;28;20186;-72
2022/01/29 10:42:17;;;;;;;12.80;9.97;;;8.20;99.90;;;;;;5007406;28;20217;-72
2022/01/29 10:44:48;;;;;;;13.73;9.73;;;8.30;99.90;;;;;;4991411;28;20185;-72
2022/01/29 10:47:15;;;;;;;14.23;10.30;;;8.30;99.90;;;;;;4990999;28;20197;-72
2022/01/29 10:49:59;;;;;;;13.53;10.50;;;8.30;99.90;;;;;;4988286;28;20204;-72
2022/01/29 10:52:33;;;;;;;12.97;10.00;;;8.30;99.90;;;;;;4973999;28;20216;-73
2022/01/29 10:55:07;;;;;;;15.33;10.03;;;8.30;99.90;;;;;;4987822;28;20188;-73
2022/01/29 10:57:41;;;;;;;15.53;10.77;;;8.40;99.90;;;;;;4991694;28;20693;-72
2022/01/29 11:00:20;;;;;;;14.17;10.30;;;8.40;99.90;;;;;;4990156;28;20291;-73
2022/01/29 11:02:47;;;;;;;12.80;9.93;;;8.40;99.90;;;;;;4974390;28;20202;-72
2022/01/29 11:05:14;;;;;;;13.37;9.67;;;8.40;99.90;;;;;;4991114;28;20220;-72
2022/01/29 11:07:42;;;;;;;12.77;9.37;;;8.50;99.90;;;;;;4992291;28;20184;-72
2022/01/29 11:10:09;;;;;;;11.60;9.43;;;8.50;99.90;;;;;;4990390;28;20200;-72
2022/01/29 11:12:38;;;;;;;12.93;9.03;;;8.50;99.90;;;;;;4990661;28;20218;-74
2022/01/29 11:15:04;;;;;;;12.97;9.30;;;8.50;99.90;;;;;;5009619;28;20180;-73
2022/01/29 11:17:31;;;;;;;13.03;8.83;;;8.50;99.90;;;;;;5011753;28;20212;-72
2022/01/29 11:19:58;;;;;;;11.83;9.07;;;8.60;99.90;;;;;;5002106;28;20213;-72
2022/01/29 11:22:35;;;;;;;13.03;8.57;;;8.60;99.90;;;;;;4990725;28;20197;-73
2022/01/29 11:25:07;;;;;;;10.67;8.20;;;8.60;99.90;;;;;;4993303;28;20291;-72
2022/01/29 11:27:35;;;;;;;10.70;8.07;;;8.60;99.90;;;;;;4984000;28;20182;-72
2022/01/29 11:30:09;;;;;;;11.27;8.60;;;8.60;99.90;;;;;;4990997;28;20206;-72
2022/01/29 11:32:38;;;;;;;11.23;8.60;;;8.60;99.90;;;;;;4991779;28;20248;-72
2022/01/29 11:35:04;;;;;;;10.17;7.97;;;8.70;99.90;;;;;;4991852;28;20241;-72
2022/01/29 11:37:54;;;;;;;9.97;8.10;;;8.70;99.90;;;;;;5015564;28;20181;-72
2022/01/29 11:40:19;;;;;;;9.20;7.53;;;8.70;99.90;;;;;;5011450;28;20273;-72
2022/01/29 11:43:17;;;;;;;11.63;8.33;;;8.70;99.90;;;;;;5010112;28;20225;-73
2022/01/29 11:45:45;;;;;;;8.47;7.40;;;8.70;99.90;;;;;;4974968;28;20197;-72
2022/01/29 11:48:38;;;;;;;11.27;8.00;;;8.80;99.90;;;;;;4994971;28;20185;-72
2022/01/29 11:51:09;;;;;;;9.57;7.53;;;8.80;99.90;;;;;;4978073;28;20221;-73
2022/01/29 11:53:44;;;;;;;13.73;8.47;;;8.80;99.90;;;;;;4990934;28;20669;-72
2022/01/29 11:56:32;;;;;;;9.17;8.03;;;8.90;99.90;;;;;;4974951;28;20185;-72
2022/01/29 11:59:19;;;;;;;12.00;8.17;;;8.90;99.90;;;;;;4987135;28;20166;-72
2022/01/29 12:01:46;;;;;;;10.77;7.80;;;8.90;99.90;;;;;;5016039;28;20197;-72
2022/01/29 12:04:12;;;;;;;9.97;7.97;;;9.00;99.90;;;;;;5013210;28;20181;-72
2022/01/29 12:09:49;;;;;;;9.93;7.77;;;9.10;99.90;;;;;;4986179;28;20212;-72
2022/01/29 12:12:24;;;;;;;11.93;7.60;;;9.10;99.90;;;;;;5010064;28;20279;-73
2022/01/29 12:14:52;;;;;;;9.30;7.90;;;9.10;99.90;;;;;;4994388;28;20173;-73
2022/01/29 12:17:37;;;;;;;11.73;7.53;;;9.20;99.90;;;;;;5010323;28;20176;-73
2022/01/29 12:20:06;;;;;;;9.07;7.47;;;9.20;99.90;;;;;;4992624;28;20202;-73
2022/01/29 12:22:36;;;;;;;7.67;6.77;;;9.20;99.90;;;;;;5010057;28;20176;-74
2022/01/29 12:25:05;;;;;;;10.83;6.87;;;9.30;99.90;;;;;;4994148;28;20185;-74
2022/01/29 12:27:50;;;;;;;10.00;6.80;;;9.30;99.90;;;;;;4993978;28;20174;-74
2022/01/29 12:30:22;;;;;;;8.80;6.90;;;9.30;99.90;;;;;;4993592;28;20194;-74
2022/01/29 12:33:04;;;;;;;10.27;7.10;;;9.40;99.90;;;;;;4994100;28;20205;-74
2022/01/29 12:35:42;;;;;;;7.40;6.30;;;9.40;99.90;;;;;;4994637;28;20187;-73
2022/01/29 12:38:35;;;;;;;10.43;6.77;;;9.50;99.90;;;;;;4994042;28;20177;-73
2022/01/29 12:41:06;;;;;;;8.17;6.43;;;9.50;99.90;;;;;;4992130;28;20697;-73
2022/01/29 12:43:52;;;;;;;10.50;6.97;;;9.50;99.90;;;;;;5010217;28;20260;-73
2022/01/29 12:46:27;;;;;;;10.40;6.73;;;9.50;99.90;;;;;;5010109;28;20231;-73
2022/01/29 12:49:06;;;;;;;9.13;6.00;;;9.60;99.90;;;;;;5008990;28;20177;-73
2022/01/29 12:51:48;;;;;;;9.00;6.63;;;9.60;99.90;;;;;;5007837;28;20208;-74
2022/01/29 12:54:14;;;;;;;8.27;6.17;;;9.60;99.90;;;;;;5009376;28;20177;-73
2022/01/29 12:56:40;;;;;;;10.63;6.50;;;9.60;99.90;;;;;;4991318;28;20185;-72
2022/01/29 12:59:08;;;;;;;7.17;5.63;;;9.60;99.90;;;;;;4991348;28;20661;-71
2022/01/29 13:01:35;;;;;;;8.57;6.23;;;9.60;99.90;;;;;;5001208;28;20227;-72
2022/01/29 13:04:06;;;;;;;7.27;6.27;;;9.60;99.90;;;;;;5025321;28;20176;-71